createdAt,value
2022-07-30T00:02:09.704Z,3.00
2022-07-30T00:04:39.244Z,3.70
2022-07-30T00:07:06.289Z,4.20
2022-07-30T00:09:33.303Z,3.70
2022-07-30T00:12:01.725Z,3.63
2022-07-30T00:14:28.664Z,3.97
2022-07-30T00:16:55.601Z,5.27
2022-07-30T00:19:22.610Z,3.50
2022-07-30T00:21:52.422Z,3.17
2022-07-30T00:24:21.079Z,3.20
2022-07-30T00:26:53.615Z,3.03
2022-07-30T00:29:20.505Z,3.37
2022-07-30T00:31:49.670Z,4.00
2022-07-30T00:34:22.345Z,3.33
2022-07-30T00:36:51.816Z,3.60
2022-07-30T00:39:18.773Z,3.80
2022-07-30T00:42:06.432Z,3.23
2022-07-30T00:44:33.533Z,3.17
2022-07-30T00:47:00.803Z,3.53
2022-07-30T00:49:28.176Z,3.33
2022-07-30T00:51:55.316Z,3.97
2022-07-30T00:54:22.585Z,3.27
2022-07-30T00:56:50.084Z,3.10
2022-07-30T00:59:17.379Z,3.00
2022-07-30T01:01:44.546Z,3.53
2022-07-30T01:04:14.786Z,3.83
2022-07-30T01:06:44.270Z,3.77
2022-07-30T01:09:13.752Z,4.10
2022-07-30T01:11:44.410Z,3.40
2022-07-30T01:14:11.313Z,3.43
2022-07-30T01:16:41.705Z,3.30
2022-07-30T01:19:38.661Z,3.57
2022-07-30T01:22:33.928Z,3.77
2022-07-30T01:25:04.011Z,3.40
2022-07-30T01:27:36.901Z,2.60
2022-07-30T01:30:08.562Z,3.83
2022-07-30T01:32:42.147Z,4.00
2022-07-30T01:35:11.373Z,3.10
2022-07-30T01:37:42.581Z,3.10
2022-07-30T01:40:10.311Z,4.20
2022-07-30T01:42:41.324Z,3.67
2022-07-30T01:45:11.637Z,3.50
2022-07-30T01:47:42.080Z,3.43
2022-07-30T01:50:16.045Z,3.37
2022-07-30T01:52:46.022Z,3.43
2022-07-30T01:55:24.999Z,3.00
2022-07-30T01:57:54.119Z,3.10
2022-07-30T02:00:25.735Z,3.10
2022-07-30T02:02:52.664Z,2.93
2022-07-30T02:05:24.266Z,2.63
2022-07-30T02:08:07.425Z,3.40
2022-07-30T02:10:44.093Z,2.70
2022-07-30T02:13:16.765Z,3.10
2022-07-30T02:15:54.944Z,3.20
2022-07-30T02:18:28.734Z,3.00
2022-07-30T02:21:07.604Z,3.13
2022-07-30T02:23:48.097Z,3.13
2022-07-30T02:26:19.305Z,2.80
2022-07-30T02:28:51.156Z,3.27
2022-07-30T02:31:25.566Z,3.00
2022-07-30T02:34:01.631Z,3.20
2022-07-30T02:36:29.941Z,3.10
2022-07-30T02:39:01.612Z,3.10
2022-07-30T02:41:31.381Z,3.33
2022-07-30T02:43:59.656Z,2.93
2022-07-30T02:46:27.875Z,3.27
2022-07-30T02:48:58.562Z,3.20
2022-07-30T02:51:30.797Z,3.50
2022-07-30T02:54:00.474Z,2.90
2022-07-30T02:56:31.382Z,2.73
2022-07-30T02:59:01.399Z,3.00
2022-07-30T03:01:31.895Z,3.00
2022-07-30T03:03:59.424Z,3.03
2022-07-30T03:06:31.974Z,3.50
2022-07-30T03:09:02.535Z,2.93
2022-07-30T03:11:34.655Z,3.40
2022-07-30T03:14:07.965Z,3.47
2022-07-30T03:16:41.936Z,3.60
2022-07-30T03:19:14.500Z,3.30
2022-07-30T03:21:46.272Z,3.10
2022-07-30T03:24:15.061Z,3.80
2022-07-30T03:26:46.193Z,3.40
2022-07-30T03:29:14.653Z,4.20
2022-07-30T03:31:42.690Z,3.27
2022-07-30T03:34:12.862Z,4.07
2022-07-30T03:36:44.285Z,6.20
2022-07-30T03:39:12.178Z,3.90
2022-07-30T03:41:42.016Z,4.77
2022-07-30T03:44:09.438Z,3.63
2022-07-30T03:46:38.875Z,4.07
2022-07-30T03:49:09.131Z,3.90
2022-07-30T03:51:37.644Z,3.80
2022-07-30T03:54:13.149Z,3.90
2022-07-30T03:56:41.562Z,3.83
2022-07-30T03:59:13.493Z,3.93
2022-07-30T04:01:42.851Z,3.13
2022-07-30T04:04:10.840Z,3.93
2022-07-30T04:06:43.259Z,4.93
2022-07-30T04:09:12.370Z,3.47
2022-07-30T04:11:41.551Z,3.47
2022-07-30T04:14:09.449Z,3.70
2022-07-30T04:17:18.467Z,3.73
2022-07-30T04:20:00.022Z,3.30
2022-07-30T04:22:36.425Z,4.10
2022-07-30T04:25:12.031Z,4.17
2022-07-30T04:28:02.766Z,3.20
2022-07-30T04:30:35.367Z,3.03
2022-07-30T04:33:04.644Z,3.97
2022-07-30T04:35:51.036Z,3.03
2022-07-30T04:38:20.279Z,3.23
2022-07-30T04:40:48.108Z,3.77
2022-07-30T04:43:17.521Z,4.30
2022-07-30T04:45:45.007Z,3.30
2022-07-30T04:48:11.984Z,3.50
2022-07-30T04:50:43.080Z,3.77
2022-07-30T04:53:11.062Z,3.67
2022-07-30T04:55:42.521Z,3.57
2022-07-30T04:58:11.420Z,3.47
2022-07-30T05:00:41.342Z,3.80
2022-07-30T05:03:12.866Z,3.30
2022-07-30T05:05:43.328Z,3.20
2022-07-30T05:08:10.633Z,3.40
2022-07-30T05:10:38.510Z,3.50
2022-07-30T05:13:11.230Z,4.27
2022-07-30T05:15:44.765Z,3.60
2022-07-30T05:18:14.834Z,3.30
2022-07-30T05:20:44.877Z,3.53
2022-07-30T05:23:11.790Z,3.50
2022-07-30T05:25:38.631Z,3.27
2022-07-30T05:28:05.580Z,3.33
2022-07-30T05:30:32.530Z,3.27
2022-07-30T05:33:08.723Z,3.60
2022-07-30T05:35:42.730Z,3.40
2022-07-30T05:38:09.631Z,3.50
2022-07-30T05:40:36.537Z,4.57
2022-07-30T05:43:06.074Z,3.50
2022-07-30T05:45:33.163Z,3.60
2022-07-30T05:48:00.048Z,3.60
2022-07-30T05:50:29.235Z,3.10
2022-07-30T05:52:58.546Z,3.20
2022-07-30T05:55:25.508Z,3.57
2022-07-30T06:02:01.294Z,3.70
2022-07-30T06:04:28.233Z,3.50
2022-07-30T06:06:55.340Z,3.63
2022-07-30T06:09:22.278Z,3.40
2022-07-30T06:11:57.607Z,3.03
2022-07-30T06:14:26.713Z,3.30
2022-07-30T06:16:53.667Z,3.50
2022-07-30T06:19:22.846Z,3.50
2022-07-30T06:22:05.860Z,4.07
2022-07-30T06:24:34.514Z,3.13
2022-07-30T06:27:02.102Z,3.07
2022-07-30T06:29:29.331Z,3.60
2022-07-30T06:31:56.571Z,3.47
2022-07-30T06:34:23.544Z,2.93
2022-07-30T06:36:52.668Z,3.60
2022-07-30T06:39:56.592Z,3.40
2022-07-30T06:42:08.867Z,3.10
2022-07-30T06:44:35.730Z,3.10
2022-07-30T06:47:07.733Z,3.63
2022-07-30T06:49:37.982Z,3.53
2022-07-30T06:52:07.965Z,3.40
2022-07-30T06:54:37.333Z,3.67
2022-07-30T06:57:04.492Z,3.37
2022-07-30T06:59:56.378Z,3.17
2022-07-30T07:02:24.525Z,2.90
2022-07-30T07:04:51.588Z,3.13
2022-07-30T07:07:37.421Z,3.60
2022-07-30T07:10:08.976Z,4.17
2022-07-30T07:12:35.974Z,2.77
2022-07-30T07:15:08.760Z,3.33
2022-07-30T07:17:35.754Z,3.00
2022-07-30T07:20:05.363Z,2.97
2022-07-30T07:22:32.342Z,3.77
2022-07-30T07:25:01.981Z,3.30
2022-07-30T07:27:32.584Z,3.73
2022-07-30T07:30:01.168Z,3.30
2022-07-30T07:32:31.977Z,3.53
2022-07-30T07:35:04.056Z,3.10
2022-07-30T07:37:33.074Z,3.73
2022-07-30T07:40:04.602Z,3.63
2022-07-30T07:42:31.689Z,3.20
2022-07-30T07:45:00.741Z,3.80
2022-07-30T07:47:27.616Z,4.37
2022-07-30T07:49:57.607Z,3.80
2022-07-30T07:52:24.476Z,3.37
2022-07-30T07:54:53.849Z,3.80
2022-07-30T07:57:20.727Z,3.77
2022-07-30T07:59:47.928Z,3.23
2022-07-30T08:02:19.604Z,3.60
2022-07-30T08:04:49.597Z,3.60
2022-07-30T08:07:19.161Z,3.80
2022-07-30T08:09:46.031Z,4.07
2022-07-30T08:12:16.078Z,3.87
2022-07-30T08:14:42.994Z,3.93
2022-07-30T08:17:10.415Z,4.10
2022-07-30T08:19:37.443Z,3.90
2022-07-30T08:22:04.379Z,3.70
2022-07-30T08:24:31.471Z,3.97
2022-07-30T08:27:03.483Z,3.57
2022-07-30T08:29:30.747Z,3.80
2022-07-30T08:31:57.778Z,3.40
2022-07-30T08:34:27.058Z,4.13
2022-07-30T08:36:54.023Z,4.50
2022-07-30T08:39:25.667Z,4.33
2022-07-30T08:41:52.735Z,3.77
2022-07-30T08:44:22.996Z,3.90
2022-07-30T08:46:56.368Z,3.90
2022-07-30T08:49:23.904Z,4.00
2022-07-30T08:51:54.192Z,3.40
2022-07-30T08:54:23.825Z,3.20
2022-07-30T08:56:50.805Z,5.53
2022-07-30T08:59:18.498Z,3.87
2022-07-30T09:01:47.756Z,7.30
2022-07-30T09:04:17.054Z,3.97
2022-07-30T09:06:49.934Z,3.50
2022-07-30T09:09:17.144Z,3.33
2022-07-30T09:11:46.294Z,3.17
2022-07-30T09:14:15.103Z,3.63
2022-07-30T09:16:43.918Z,4.50
2022-07-30T09:19:20.646Z,3.73
2022-07-30T09:22:00.024Z,4.57
2022-07-30T09:24:27.818Z,3.97
2022-07-30T09:27:03.176Z,3.50
2022-07-30T09:29:31.956Z,3.00
2022-07-30T09:32:01.173Z,3.17
2022-07-30T09:34:33.671Z,3.00
2022-07-30T09:37:05.472Z,3.17
2022-07-30T09:39:37.258Z,3.70
2022-07-30T09:42:23.774Z,3.00
2022-07-30T09:45:07.349Z,3.00
2022-07-30T09:47:39.978Z,3.00
2022-07-30T09:50:30.182Z,3.20
2022-07-30T09:53:09.079Z,3.20
2022-07-30T09:55:41.486Z,3.57
2022-07-30T09:58:12.887Z,3.83
2022-07-30T10:00:49.078Z,3.10
2022-07-30T10:03:21.644Z,2.97
2022-07-30T10:06:03.090Z,3.20
2022-07-30T10:08:51.937Z,3.43
2022-07-30T10:11:24.384Z,3.30
2022-07-30T10:13:57.915Z,3.53
2022-07-30T10:16:32.949Z,3.27
2022-07-30T10:19:00.674Z,2.97
2022-07-30T10:21:32.600Z,2.63
2022-07-30T10:24:04.162Z,3.20
2022-07-30T10:26:37.339Z,2.83
2022-07-30T10:29:07.307Z,3.10
2022-07-30T10:31:48.073Z,3.13
2022-07-30T10:34:19.034Z,2.87
2022-07-30T10:37:06.847Z,4.20
2022-07-30T10:40:11.162Z,3.20
2022-07-30T10:43:23.343Z,4.47
2022-07-30T10:46:30.637Z,3.50
2022-07-30T10:49:19.132Z,3.50
2022-07-30T10:51:59.986Z,3.80
2022-07-30T10:54:41.065Z,3.47
2022-07-30T10:57:22.401Z,3.37
2022-07-30T10:59:55.680Z,2.83
2022-07-30T11:02:25.635Z,2.90
2022-07-30T11:05:18.181Z,3.30
2022-07-30T11:07:47.901Z,3.20
2022-07-30T11:10:44.005Z,3.50
2022-07-30T11:13:11.228Z,3.13
2022-07-30T11:16:00.462Z,3.87
2022-07-30T11:18:33.105Z,3.80
2022-07-30T11:21:21.252Z,2.83
2022-07-30T11:23:54.668Z,3.53
2022-07-30T11:26:41.733Z,8.80
2022-07-30T11:29:51.181Z,3.30
2022-07-30T11:32:34.737Z,3.30
2022-07-30T11:35:25.456Z,3.00
2022-07-30T11:38:06.998Z,2.73
2022-07-30T11:41:00.839Z,3.00
2022-07-30T11:43:35.915Z,3.10
2022-07-30T11:46:17.950Z,3.17
2022-07-30T11:49:12.795Z,3.77
2022-07-30T11:51:46.030Z,3.03
2022-07-30T11:54:15.181Z,3.20
2022-07-30T11:57:08.393Z,3.10
2022-07-30T11:59:56.328Z,2.97
2022-07-30T12:02:29.467Z,3.70
2022-07-30T12:04:56.385Z,3.20
2022-07-30T12:07:25.856Z,3.33
2022-07-30T12:09:52.788Z,3.23
2022-07-30T12:12:25.719Z,2.77
2022-07-30T12:15:01.732Z,3.10
2022-07-30T12:17:45.506Z,3.00
2022-07-30T12:20:20.781Z,3.30
2022-07-30T12:22:48.052Z,3.70
2022-07-30T12:25:17.824Z,3.30
2022-07-30T12:27:52.345Z,2.70
2022-07-30T12:30:24.526Z,3.00
2022-07-30T12:32:51.673Z,3.30
2022-07-30T12:35:18.659Z,2.57
2022-07-30T12:38:04.305Z,2.63
2022-07-30T12:40:31.468Z,2.67
2022-07-30T12:42:58.606Z,3.47
2022-07-30T12:45:52.324Z,3.10
2022-07-30T12:48:24.025Z,3.03
2022-07-30T12:51:11.354Z,3.47
2022-07-30T12:53:43.013Z,3.70
2022-07-30T12:56:15.505Z,2.70
2022-07-30T12:58:43.124Z,2.50
2022-07-30T13:01:13.147Z,3.10
2022-07-30T13:03:45.659Z,3.40
2022-07-30T13:06:25.495Z,3.40
2022-07-30T13:08:58.682Z,3.30
2022-07-30T13:11:49.261Z,3.07
2022-07-30T13:14:19.261Z,2.93
2022-07-30T13:16:56.190Z,3.13
2022-07-30T13:19:25.705Z,3.10
2022-07-30T13:22:02.281Z,3.23
2022-07-30T13:24:32.579Z,2.93
2022-07-30T13:27:02.107Z,3.00
2022-07-30T13:29:30.111Z,2.87
2022-07-30T13:32:01.524Z,2.70
2022-07-30T13:34:30.729Z,2.80
2022-07-30T13:36:57.694Z,2.60
2022-07-30T13:39:26.856Z,2.97
2022-07-30T13:41:55.858Z,2.80
2022-07-30T13:44:22.781Z,3.53
2022-07-30T13:46:51.881Z,2.70
2022-07-30T13:49:18.783Z,3.80
2022-07-30T13:51:48.196Z,3.07
2022-07-30T13:54:15.686Z,2.70
2022-07-30T13:56:44.755Z,2.93
2022-07-30T13:59:13.923Z,3.03
2022-07-30T14:01:43.074Z,2.90
2022-07-30T14:04:10.046Z,3.17
2022-07-30T14:06:37.253Z,3.10
2022-07-30T14:09:04.567Z,2.70
2022-07-30T14:11:32.103Z,2.97
2022-07-30T14:13:59.007Z,3.00
2022-07-30T14:16:44.594Z,2.87
2022-07-30T14:19:12.365Z,3.03
2022-07-30T14:21:51.043Z,3.33
2022-07-30T14:24:17.967Z,3.07
2022-07-30T14:26:44.931Z,2.93
2022-07-30T14:29:12.055Z,3.47
2022-07-30T14:31:40.379Z,3.20
2022-07-30T14:34:07.677Z,3.30
2022-07-30T14:36:37.750Z,2.87
2022-07-30T14:39:05.561Z,2.93
2022-07-30T14:41:38.627Z,3.70
2022-07-30T14:44:12.389Z,3.00
2022-07-30T14:46:52.326Z,2.90
2022-07-30T14:49:24.343Z,4.33
2022-07-30T14:51:56.227Z,3.10
2022-07-30T14:54:23.408Z,3.07
2022-07-30T14:56:59.039Z,2.70
2022-07-30T14:59:31.315Z,2.97
2022-07-30T15:01:58.417Z,3.20
2022-07-30T15:04:27.581Z,2.60
2022-07-30T15:06:59.710Z,3.20
2022-07-30T15:09:30.476Z,2.90
2022-07-30T15:12:08.954Z,3.33
2022-07-30T15:14:41.777Z,3.50
2022-07-30T15:17:13.943Z,3.60
2022-07-30T15:19:50.387Z,3.27
2022-07-30T15:22:19.924Z,3.10
2022-07-30T15:24:51.923Z,3.50
2022-07-30T15:27:19.304Z,2.80
2022-07-30T15:29:49.469Z,3.33
2022-07-30T15:32:17.298Z,3.23
2022-07-30T15:34:46.819Z,3.07
2022-07-30T15:37:15.942Z,3.50
2022-07-30T15:39:43.589Z,3.60
2022-07-30T15:42:15.724Z,3.27
2022-07-30T15:44:48.615Z,3.50
2022-07-30T15:47:18.743Z,3.87
2022-07-30T15:49:46.016Z,3.50
2022-07-30T15:52:13.858Z,4.50
2022-07-30T15:54:43.432Z,3.77
2022-07-30T15:57:12.625Z,3.60
2022-07-30T15:59:42.111Z,3.23
2022-07-30T16:02:09.522Z,3.00
2022-07-30T16:04:39.247Z,2.90
2022-07-30T16:07:08.345Z,3.00
2022-07-30T16:09:35.479Z,3.70
2022-07-30T16:12:02.955Z,3.57
2022-07-30T16:14:30.341Z,3.40
2022-07-30T16:17:02.398Z,3.87
2022-07-30T16:19:31.878Z,3.17
2022-07-30T16:21:58.952Z,3.53
2022-07-30T16:24:26.086Z,3.47
2022-07-30T16:26:55.694Z,3.90
2022-07-30T16:29:22.851Z,3.63
2022-07-30T16:31:52.894Z,4.30
2022-07-30T16:34:26.351Z,4.17
2022-07-30T16:36:54.119Z,4.50
2022-07-30T16:39:21.204Z,4.93
2022-07-30T16:41:48.331Z,4.70
2022-07-30T16:44:15.806Z,5.80
2022-07-30T16:46:45.481Z,5.43
2022-07-30T16:49:14.961Z,5.10
2022-07-30T16:51:47.683Z,5.00
2022-07-30T16:54:17.501Z,4.33
2022-07-30T16:56:47.501Z,5.00
2022-07-30T16:59:14.670Z,5.03
2022-07-30T17:01:41.641Z,5.40
2022-07-30T17:04:08.822Z,4.87
2022-07-30T17:06:36.375Z,4.97
2022-07-30T17:09:03.631Z,5.30
2022-07-30T17:11:47.550Z,4.93
2022-07-30T17:14:19.675Z,4.43
2022-07-30T17:16:46.888Z,4.47
2022-07-30T17:19:13.836Z,5.07
2022-07-30T17:21:40.857Z,6.47
2022-07-30T17:24:13.898Z,4.70
2022-07-30T17:26:44.984Z,5.87
2022-07-30T17:29:18.250Z,5.57
2022-07-30T17:31:50.730Z,5.57
2022-07-30T17:34:20.893Z,6.43
2022-07-30T17:36:52.354Z,4.60
2022-07-30T17:40:19.309Z,5.13
2022-07-30T17:42:15.509Z,4.40
2022-07-30T17:44:45.551Z,5.10
2022-07-30T17:47:16.359Z,4.03
2022-07-30T17:49:44.254Z,4.80
2022-07-30T17:52:11.508Z,4.63
2022-07-30T17:54:38.738Z,4.80
2022-07-30T17:57:06.160Z,4.77
2022-07-30T17:59:33.291Z,4.40
2022-07-30T18:02:04.585Z,4.37
2022-07-30T18:04:32.359Z,4.37
2022-07-30T18:06:59.614Z,3.93
2022-07-30T18:09:30.136Z,3.53
2022-07-30T18:12:08.416Z,4.37
2022-07-30T18:14:35.702Z,4.53
2022-07-30T18:17:03.706Z,4.20
2022-07-30T18:19:33.252Z,4.93
2022-07-30T18:22:05.451Z,4.40
2022-07-30T18:24:33.827Z,5.53
2022-07-30T18:27:07.699Z,5.10
2022-07-30T18:29:35.166Z,4.30
2022-07-30T18:32:02.706Z,5.17
2022-07-30T18:34:35.266Z,5.70
2022-07-30T18:37:02.462Z,4.50
2022-07-30T18:39:29.830Z,5.00
2022-07-30T18:41:58.374Z,4.00
2022-07-30T18:44:25.262Z,4.53
2022-07-30T18:46:52.512Z,4.77
2022-07-30T18:49:36.010Z,4.50
2022-07-30T18:52:05.126Z,4.40
2022-07-30T18:54:32.448Z,4.50
2022-07-30T18:56:59.738Z,5.27
2022-07-30T18:59:29.871Z,5.03
2022-07-30T19:01:57.231Z,4.80
2022-07-30T19:04:24.597Z,4.57
2022-07-30T19:06:54.359Z,4.67
2022-07-30T19:11:51.085Z,4.40
2022-07-30T19:14:18.536Z,4.67
2022-07-30T19:16:46.207Z,5.20
2022-07-30T19:19:15.072Z,4.73
2022-07-30T19:21:42.417Z,5.10
2022-07-30T19:24:12.537Z,4.60
2022-07-30T19:26:39.958Z,5.17
2022-07-30T19:29:10.405Z,4.67
2022-07-30T19:31:41.765Z,5.53
2022-07-30T19:34:10.921Z,5.63
2022-07-30T19:36:40.871Z,5.50
2022-07-30T19:39:15.972Z,6.63
2022-07-30T19:44:41.123Z,5.40
2022-07-30T19:47:11.358Z,5.53
2022-07-30T19:49:43.273Z,4.97
2022-07-30T19:52:23.672Z,5.73
2022-07-30T19:54:52.731Z,5.57
2022-07-30T19:57:22.175Z,5.20
2022-07-30T20:00:00.230Z,5.63
2022-07-30T20:02:35.746Z,5.80
2022-07-30T20:05:10.908Z,5.40
2022-07-30T20:07:40.598Z,5.87
2022-07-30T20:10:10.810Z,5.50
2022-07-30T20:12:42.025Z,5.47
2022-07-30T20:15:14.782Z,5.13
2022-07-30T20:17:46.498Z,5.50
2022-07-30T20:20:18.405Z,6.27
2022-07-30T20:22:53.934Z,6.10
2022-07-30T20:25:21.795Z,7.10
2022-07-30T20:27:48.759Z,5.93
2022-07-30T20:30:16.353Z,5.63
2022-07-30T20:32:52.707Z,5.23
2022-07-30T20:35:21.486Z,5.03
2022-07-30T20:37:55.519Z,5.50
2022-07-30T20:40:26.791Z,5.07
2022-07-30T20:42:57.921Z,5.40
2022-07-30T20:45:40.276Z,5.50
2022-07-30T20:48:16.967Z,5.37
2022-07-30T20:53:37.223Z,5.17
2022-07-30T20:56:10.155Z,4.63
2022-07-30T20:58:37.855Z,5.67
2022-07-30T21:01:05.145Z,5.03
2022-07-30T21:03:34.583Z,5.20
2022-07-30T21:06:06.187Z,4.80
2022-07-30T21:08:34.023Z,5.80
2022-07-30T21:11:03.286Z,4.83
2022-07-30T21:13:30.636Z,4.13
2022-07-30T21:16:02.760Z,5.20
2022-07-30T21:18:31.607Z,4.80
2022-07-30T21:21:05.687Z,5.10
2022-07-30T21:23:33.515Z,4.73
2022-07-30T21:26:10.513Z,4.80
2022-07-30T21:28:40.848Z,4.57
2022-07-30T21:31:10.970Z,4.80
2022-07-30T21:33:40.679Z,5.17
2022-07-30T21:36:10.318Z,4.77
2022-07-30T21:38:42.529Z,4.97
2022-07-30T21:41:14.051Z,5.93
2022-07-30T21:43:44.121Z,5.30
2022-07-30T21:46:12.449Z,4.80
2022-07-30T21:48:45.890Z,4.73
2022-07-30T21:51:13.869Z,5.27
2022-07-30T21:53:46.308Z,5.30
2022-07-30T21:56:15.835Z,6.07
2022-07-30T21:58:44.197Z,5.40
2022-07-30T22:01:17.823Z,6.00
2022-07-30T22:04:01.198Z,6.40
2022-07-30T22:06:34.929Z,6.73
2022-07-30T22:09:10.121Z,5.73
2022-07-30T22:11:46.999Z,6.70
2022-07-30T22:14:14.334Z,6.50
2022-07-30T22:16:46.208Z,6.63
2022-07-30T22:19:14.998Z,6.93
2022-07-30T22:21:46.599Z,6.80
2022-07-30T22:24:29.828Z,7.43
2022-07-30T22:27:11.759Z,7.10
2022-07-30T22:29:43.385Z,7.40
2022-07-30T22:32:12.050Z,7.30
2022-07-30T22:34:39.535Z,6.67
2022-07-30T22:37:09.226Z,6.67
2022-07-30T22:39:51.637Z,7.00
2022-07-30T22:42:24.080Z,6.77
2022-07-30T22:44:55.474Z,6.60
2022-07-30T22:47:54.108Z,6.97
2022-07-30T22:50:17.256Z,6.23
2022-07-30T22:53:01.835Z,6.60
2022-07-30T22:55:41.109Z,6.50
2022-07-30T22:58:08.383Z,6.50
2022-07-30T23:00:37.080Z,6.63
2022-07-30T23:03:07.804Z,6.00
2022-07-30T23:05:35.765Z,5.80
2022-07-30T23:08:06.028Z,6.57
2022-07-30T23:10:33.324Z,6.23
2022-07-30T23:12:17.617Z,5.90
2022-07-30T23:12:19.261Z,4.93
2022-07-30T23:13:03.310Z,5.97
2022-07-30T23:15:30.568Z,7.00
2022-07-30T23:17:57.866Z,6.60
2022-07-30T23:20:29.619Z,5.90
2022-07-30T23:22:59.291Z,5.63
2022-07-30T23:25:38.636Z,6.07
2022-07-30T23:28:06.662Z,6.80
2022-07-30T23:30:36.082Z,6.20
2022-07-30T23:33:08.735Z,7.50
2022-07-30T23:35:35.958Z,6.30
2022-07-30T23:38:03.367Z,6.40
2022-07-30T23:40:33.279Z,6.07
2022-07-30T23:43:03.281Z,6.23
2022-07-30T23:45:32.844Z,6.63
2022-07-30T23:48:05.795Z,7.30
2022-07-30T23:50:33.815Z,6.80
2022-07-30T23:53:07.037Z,6.47
2022-07-30T23:55:34.494Z,6.47
2022-07-30T23:58:01.916Z,6.30
